createdAt,value
2022-12-18T00:01:51.572Z,-4.40
2022-12-18T00:04:22.545Z,-4.40
2022-12-18T00:06:46.242Z,-4.40
2022-12-18T00:09:11.664Z,-4.40
2022-12-18T00:11:35.304Z,-4.40
2022-12-18T00:14:01.201Z,-4.40
2022-12-18T00:16:27.558Z,-4.40
2022-12-18T00:18:51.957Z,-4.40
2022-12-18T00:21:16.608Z,-4.40
2022-12-18T00:23:41.623Z,-4.40
2022-12-18T00:26:10.348Z,-4.40
2022-12-18T00:28:33.844Z,-4.40
2022-12-18T00:31:03.300Z,-4.30
2022-12-18T00:33:27.973Z,-4.30
2022-12-18T00:35:51.291Z,-4.40
2022-12-18T00:38:14.565Z,-4.40
2022-12-18T00:40:37.794Z,-4.40
2022-12-18T00:43:00.198Z,-4.40
2022-12-18T00:45:33.098Z,-4.40
2022-12-18T00:47:57.294Z,-4.40
2022-12-18T00:50:22.401Z,-4.40
2022-12-18T00:52:45.715Z,-4.40
2022-12-18T00:55:10.094Z,-4.40
2022-12-18T00:57:33.558Z,-4.30
2022-12-18T00:59:56.934Z,-4.20
2022-12-18T01:02:20.384Z,-4.20
2022-12-18T01:04:43.867Z,-4.20
2022-12-18T01:07:08.501Z,-4.20
2022-12-18T01:09:32.911Z,-4.10
2022-12-18T01:11:56.247Z,-4.10
2022-12-18T01:14:19.958Z,-4.20
2022-12-18T01:16:43.770Z,-4.10
2022-12-18T01:19:07.092Z,-4.20
2022-12-18T01:21:30.648Z,-4.20
2022-12-18T01:23:56.959Z,-4.20
2022-12-18T01:26:20.782Z,-4.20
2022-12-18T01:28:45.800Z,-4.20
2022-12-18T01:31:15.252Z,-4.20
2022-12-18T01:33:39.170Z,-4.20
2022-12-18T01:36:03.559Z,-4.10
2022-12-18T01:38:27.040Z,-4.10
2022-12-18T01:40:51.643Z,-4.10
2022-12-18T01:43:14.830Z,-4.10
2022-12-18T01:45:38.667Z,-4.10
2022-12-18T01:48:05.494Z,-4.00
2022-12-18T01:50:34.718Z,-4.00
2022-12-18T01:53:02.633Z,-3.90
2022-12-18T01:55:28.896Z,-4.00
2022-12-18T01:57:57.777Z,-4.00
2022-12-18T02:00:23.291Z,-4.10
2022-12-18T02:02:49.514Z,-4.10
2022-12-18T02:05:16.318Z,-4.00
2022-12-18T02:07:53.619Z,-4.10
2022-12-18T02:10:25.619Z,-4.10
2022-12-18T02:12:56.757Z,-4.10
2022-12-18T02:15:27.308Z,-4.20
2022-12-18T02:17:57.381Z,-4.20
2022-12-18T02:20:28.258Z,-4.10
2022-12-18T02:23:08.751Z,-4.20
2022-12-18T02:25:56.616Z,-4.10
2022-12-18T02:28:22.732Z,-4.00
2022-12-18T02:30:51.414Z,-4.10
2022-12-18T02:33:15.921Z,-4.20
2022-12-18T02:35:43.700Z,-4.20
2022-12-18T02:38:07.470Z,-4.10
2022-12-18T02:40:33.312Z,-4.10
2022-12-18T02:43:09.066Z,-4.10
2022-12-18T02:45:33.234Z,-4.10
2022-12-18T02:47:56.482Z,-4.10
2022-12-18T02:50:30.788Z,-4.00
2022-12-18T02:53:06.232Z,-3.90
2022-12-18T02:55:39.928Z,-3.90
2022-12-18T02:58:16.255Z,-4.00
2022-12-18T03:00:45.491Z,-4.00
2022-12-18T03:03:14.924Z,-4.10
2022-12-18T03:05:42.717Z,-4.20
2022-12-18T03:08:12.286Z,-4.10
2022-12-18T03:10:44.752Z,-4.10
2022-12-18T03:13:14.938Z,-4.00
2022-12-18T03:15:44.628Z,-4.00
2022-12-18T03:18:15.977Z,-4.00
2022-12-18T03:20:41.895Z,-4.10
2022-12-18T03:23:10.234Z,-4.10
2022-12-18T03:25:36.202Z,-4.00
2022-12-18T03:28:03.624Z,-4.00
2022-12-18T03:30:32.022Z,-4.00
2022-12-18T03:33:04.288Z,-3.90
2022-12-18T03:35:32.100Z,-3.90
2022-12-18T03:37:55.595Z,-4.00
2022-12-18T03:40:22.581Z,-3.90
2022-12-18T03:42:52.193Z,-3.90
2022-12-18T03:45:25.281Z,-3.90
2022-12-18T03:48:02.192Z,-3.90
2022-12-18T03:50:39.918Z,-3.90
2022-12-18T03:53:17.825Z,-3.90
2022-12-18T03:55:43.930Z,-3.90
2022-12-18T03:58:09.988Z,-3.90
2022-12-18T04:00:45.809Z,-3.90
2022-12-18T04:03:12.512Z,-3.90
2022-12-18T04:05:42.631Z,-3.90
2022-12-18T04:08:07.330Z,-3.80
2022-12-18T04:10:34.404Z,-3.90
2022-12-18T04:13:00.003Z,-3.90
2022-12-18T04:15:24.198Z,-3.80
2022-12-18T04:17:51.501Z,-3.80
2022-12-18T04:20:20.195Z,-3.80
2022-12-18T04:22:44.542Z,-3.70
2022-12-18T04:25:09.063Z,-3.70
2022-12-18T04:27:36.854Z,-3.70
2022-12-18T04:30:01.897Z,-3.70
2022-12-18T04:32:26.825Z,-3.80
2022-12-18T04:34:50.679Z,-3.80
2022-12-18T04:37:15.800Z,-3.70
2022-12-18T04:39:40.071Z,-3.60
2022-12-18T04:42:09.981Z,-3.70
2022-12-18T04:44:33.303Z,-3.70
2022-12-18T04:46:56.841Z,-3.70
2022-12-18T04:49:20.990Z,-3.70
2022-12-18T04:51:44.251Z,-3.70
2022-12-18T04:54:09.025Z,-3.70
2022-12-18T04:56:33.850Z,-3.80
2022-12-18T04:58:57.217Z,-3.80
2022-12-18T05:01:21.074Z,-3.80
2022-12-18T05:03:45.259Z,-3.90
2022-12-18T05:06:09.407Z,-3.90
2022-12-18T05:08:33.149Z,-3.90
2022-12-18T05:11:02.996Z,-3.90
2022-12-18T05:13:26.333Z,-3.90
2022-12-18T05:15:54.035Z,-3.90
2022-12-18T05:18:17.353Z,-3.90
2022-12-18T05:20:40.550Z,-3.90
2022-12-18T05:23:03.892Z,-3.90
2022-12-18T05:25:27.192Z,-3.90
2022-12-18T05:27:52.101Z,-3.90
2022-12-18T05:30:16.996Z,-3.90
2022-12-18T05:32:40.922Z,-4.00
2022-12-18T05:35:04.366Z,-3.90
2022-12-18T05:37:27.698Z,-4.00
2022-12-18T05:39:50.849Z,-4.00
2022-12-18T05:42:14.089Z,-4.00
2022-12-18T05:44:38.757Z,-4.10
2022-12-18T05:47:02.108Z,-3.90
2022-12-18T05:49:25.333Z,-4.00
2022-12-18T05:51:48.620Z,-4.00
2022-12-18T05:54:12.065Z,-3.90
2022-12-18T05:56:35.339Z,-4.00
2022-12-18T05:58:58.570Z,-4.00
2022-12-18T06:01:27.807Z,-4.00
2022-12-18T06:03:51.301Z,-4.10
2022-12-18T06:06:19.771Z,-4.20
2022-12-18T06:08:46.520Z,-4.10
2022-12-18T06:11:10.121Z,-4.20
2022-12-18T06:13:33.515Z,-4.20
2022-12-18T06:15:56.929Z,-4.20
2022-12-18T06:18:21.602Z,-4.20
2022-12-18T06:20:44.925Z,-4.20
2022-12-18T06:23:08.153Z,-4.20
2022-12-18T06:25:31.491Z,-4.20
2022-12-18T06:27:54.739Z,-4.20
2022-12-18T06:30:18.194Z,-4.10
2022-12-18T06:32:41.420Z,-4.10
2022-12-18T06:35:07.586Z,-4.10
2022-12-18T06:37:32.770Z,-4.10
2022-12-18T06:39:57.525Z,-4.00
2022-12-18T06:42:25.829Z,-3.90
2022-12-18T06:44:49.548Z,-3.90
2022-12-18T06:47:13.191Z,-4.00
2022-12-18T06:49:36.423Z,-4.00
2022-12-18T06:52:01.019Z,-3.90
2022-12-18T06:54:24.357Z,-3.90
2022-12-18T06:56:48.762Z,-3.90
2022-12-18T06:59:12.047Z,-3.90
2022-12-18T07:01:35.595Z,-4.00
2022-12-18T07:03:59.946Z,-4.00
2022-12-18T07:06:26.796Z,-3.90
2022-12-18T07:08:52.983Z,-3.90
2022-12-18T07:11:16.708Z,-4.00
2022-12-18T07:13:40.576Z,-4.00
2022-12-18T07:16:16.038Z,-3.90
2022-12-18T07:18:42.135Z,-3.90
2022-12-18T07:21:06.885Z,-3.90
2022-12-18T07:23:30.249Z,-3.80
2022-12-18T07:25:54.863Z,-3.70
2022-12-18T07:28:18.226Z,-3.60
2022-12-18T07:30:41.474Z,-3.50
2022-12-18T07:33:06.154Z,-3.60
2022-12-18T07:35:29.360Z,-3.50
2022-12-18T07:37:52.598Z,-3.40
2022-12-18T07:40:15.971Z,-3.40
2022-12-18T07:42:40.705Z,-3.40
2022-12-18T07:45:05.749Z,-3.30
2022-12-18T07:47:29.252Z,-3.30
2022-12-18T07:49:53.592Z,-3.20
2022-12-18T07:52:19.296Z,-3.20
2022-12-18T07:54:49.801Z,-3.30
2022-12-18T07:57:34.093Z,-3.20
2022-12-18T07:59:59.972Z,-3.10
2022-12-18T08:02:23.331Z,-3.20
2022-12-18T08:04:46.649Z,-3.20
2022-12-18T08:07:10.383Z,-3.10
2022-12-18T08:09:33.747Z,-3.10
2022-12-18T08:11:57.076Z,-3.00
2022-12-18T08:14:20.409Z,-2.90
2022-12-18T08:16:45.104Z,-2.90
2022-12-18T08:19:08.337Z,-2.90
2022-12-18T08:21:33.181Z,-2.80
2022-12-18T08:23:59.156Z,-2.70
2022-12-18T08:26:23.570Z,-2.70
2022-12-18T08:28:46.806Z,-2.50
2022-12-18T08:31:11.185Z,-2.50
2022-12-18T08:33:36.129Z,-2.40
2022-12-18T08:36:01.304Z,-2.40
2022-12-18T08:38:24.799Z,-2.40
2022-12-18T08:40:48.015Z,-2.30
2022-12-18T08:43:30.289Z,-2.30
2022-12-18T08:45:53.750Z,-2.20
2022-12-18T08:48:22.031Z,-2.10
2022-12-18T08:50:56.794Z,-2.10
2022-12-18T08:53:20.047Z,-2.10
2022-12-18T08:55:48.582Z,-1.90
2022-12-18T08:58:13.391Z,-1.90
2022-12-18T09:00:36.613Z,-1.90
2022-12-18T09:02:59.932Z,-1.80
2022-12-18T09:05:23.298Z,-1.90
2022-12-18T09:07:47.843Z,-1.90
2022-12-18T09:10:11.316Z,-1.90
2022-12-18T09:12:34.599Z,-1.90
2022-12-18T09:14:58.277Z,-1.80
2022-12-18T09:17:21.585Z,-1.70
2022-12-18T09:19:45.170Z,-1.70
2022-12-18T09:22:08.434Z,-1.70
2022-12-18T09:24:33.221Z,-1.70
2022-12-18T09:26:58.079Z,-1.70
2022-12-18T09:29:21.549Z,-1.50
2022-12-18T09:31:44.913Z,-1.60
2022-12-18T09:34:08.227Z,-1.50
2022-12-18T09:36:31.477Z,-1.40
2022-12-18T09:38:55.691Z,-1.40
2022-12-18T09:41:43.552Z,-1.40
2022-12-18T09:44:18.310Z,-1.30
2022-12-18T09:46:46.791Z,-1.30
2022-12-18T09:49:17.616Z,-1.20
2022-12-18T09:51:47.333Z,-1.20
2022-12-18T09:54:18.818Z,-1.10
2022-12-18T09:56:45.772Z,-1.10
2022-12-18T09:59:22.906Z,-1.10
2022-12-18T10:01:47.350Z,-1.10
2022-12-18T10:04:11.684Z,-1.00
2022-12-18T10:06:43.924Z,-1.00
2022-12-18T10:09:15.707Z,-1.00
2022-12-18T10:11:53.461Z,-1.00
2022-12-18T10:14:29.940Z,-0.90
2022-12-18T10:17:05.202Z,-0.90
2022-12-18T10:19:49.940Z,-0.90
2022-12-18T10:22:25.091Z,-0.90
2022-12-18T10:24:56.784Z,-0.90
2022-12-18T10:27:27.794Z,-0.70
2022-12-18T10:29:51.561Z,-0.70
2022-12-18T10:32:19.903Z,-0.70
2022-12-18T10:34:43.208Z,-0.60
2022-12-18T10:37:13.976Z,-0.50
2022-12-18T10:39:37.485Z,-0.50
2022-12-18T10:42:16.552Z,-0.40
2022-12-18T10:44:41.306Z,-0.40
2022-12-18T10:47:11.711Z,-0.40
2022-12-18T10:49:37.962Z,-0.40
2022-12-18T10:52:14.803Z,-0.40
2022-12-18T10:54:40.217Z,-0.40
2022-12-18T10:57:18.803Z,-0.40
2022-12-18T10:59:54.326Z,-0.40
2022-12-18T11:02:31.024Z,-0.30
2022-12-18T11:04:55.514Z,-0.30
2022-12-18T11:07:18.719Z,-0.30
2022-12-18T11:09:42.808Z,-0.20
2022-12-18T11:12:17.544Z,-0.20
2022-12-18T11:14:49.271Z,-0.20
2022-12-18T11:17:26.459Z,-0.10
2022-12-18T11:19:56.910Z,-0.20
2022-12-18T11:22:23.793Z,0.00
2022-12-18T11:25:30.297Z,0.00
2022-12-18T11:27:42.171Z,0.00
2022-12-18T11:30:27.130Z,0.00
2022-12-18T11:32:53.302Z,0.00
2022-12-18T11:35:23.146Z,0.00
2022-12-18T11:37:52.217Z,0.00
2022-12-18T11:40:20.758Z,0.00
2022-12-18T11:42:51.918Z,0.00
2022-12-18T11:45:30.249Z,0.00
2022-12-18T11:48:01.725Z,0.00
2022-12-18T11:50:28.611Z,0.00
2022-12-18T11:52:57.372Z,0.00
2022-12-18T11:55:33.440Z,0.00
2022-12-18T11:58:06.541Z,0.00
2022-12-18T12:00:31.477Z,0.00
2022-12-18T12:03:23.333Z,0.00
2022-12-18T12:06:10.530Z,0.00
2022-12-18T12:08:49.703Z,0.00
2022-12-18T12:11:24.569Z,0.00
2022-12-18T12:14:05.640Z,0.10
2022-12-18T12:16:39.575Z,0.10
2022-12-18T12:19:26.348Z,0.10
2022-12-18T12:21:57.729Z,0.10
2022-12-18T12:24:45.164Z,0.10
2022-12-18T12:27:20.719Z,0.10
2022-12-18T12:30:01.107Z,0.10
2022-12-18T12:32:40.049Z,0.10
2022-12-18T12:35:24.958Z,0.10
2022-12-18T12:38:01.287Z,0.10
2022-12-18T12:43:26.236Z,0.10
2022-12-18T12:45:53.300Z,0.10
2022-12-18T12:48:29.842Z,0.10
2022-12-18T12:50:55.675Z,0.10
2022-12-18T12:53:29.384Z,0.10
2022-12-18T12:55:54.576Z,0.10
2022-12-18T12:58:25.966Z,0.10
2022-12-18T13:00:55.868Z,0.10
2022-12-18T13:03:34.256Z,0.10
2022-12-18T13:06:02.601Z,0.10
2022-12-18T13:08:31.129Z,0.20
2022-12-18T13:11:19.838Z,0.10
2022-12-18T13:13:51.702Z,0.10
2022-12-18T13:16:21.778Z,0.10
2022-12-18T13:18:52.361Z,0.10
2022-12-18T13:21:24.985Z,0.10
2022-12-18T13:23:48.340Z,0.10
2022-12-18T13:26:33.893Z,0.10
2022-12-18T13:28:58.844Z,0.10
2022-12-18T13:32:21.146Z,0.00
2022-12-18T13:34:47.779Z,0.00
2022-12-18T13:37:42.937Z,0.00
2022-12-18T13:40:59.095Z,0.00
2022-12-18T13:43:41.360Z,0.00
2022-12-18T13:46:20.029Z,0.00
2022-12-18T13:48:54.501Z,0.00
2022-12-18T13:51:21.921Z,0.00
2022-12-18T13:53:51.071Z,0.00
2022-12-18T13:56:27.633Z,0.00
2022-12-18T13:59:18.311Z,0.00
2022-12-18T14:01:50.170Z,0.00
2022-12-18T14:04:22.140Z,0.00
2022-12-18T14:06:51.635Z,0.00
2022-12-18T14:09:21.305Z,0.00
2022-12-18T14:11:50.267Z,0.00
2022-12-18T14:14:17.250Z,0.00
2022-12-18T14:16:43.729Z,0.00
2022-12-18T14:19:15.587Z,0.00
2022-12-18T14:21:40.241Z,0.00
2022-12-18T14:24:19.772Z,-0.10
2022-12-18T14:26:43.528Z,0.00
2022-12-18T14:29:24.673Z,-0.10
2022-12-18T14:31:48.258Z,-0.10
2022-12-18T14:34:18.143Z,-0.10
2022-12-18T14:36:42.270Z,-0.10
2022-12-18T14:39:05.490Z,0.00
2022-12-18T14:41:30.340Z,-0.10
2022-12-18T14:43:55.947Z,-0.10
2022-12-18T14:46:34.537Z,-0.10
2022-12-18T14:48:59.178Z,-0.10
2022-12-18T14:51:25.092Z,-0.10
2022-12-18T14:53:54.763Z,-0.10
2022-12-18T14:56:22.945Z,-0.10
2022-12-18T14:58:53.649Z,-0.20
2022-12-18T15:01:30.590Z,-0.20
2022-12-18T15:03:55.264Z,-0.20
2022-12-18T15:06:25.646Z,-0.20
2022-12-18T15:08:49.343Z,-0.20
2022-12-18T15:11:29.722Z,-0.20
2022-12-18T15:13:54.405Z,-0.20
2022-12-18T15:16:19.044Z,-0.20
2022-12-18T15:18:46.091Z,-0.20
2022-12-18T15:21:18.641Z,-0.20
2022-12-18T15:23:50.174Z,-0.20
2022-12-18T15:26:17.834Z,-0.30
2022-12-18T15:28:47.871Z,-0.30
2022-12-18T15:31:27.259Z,-0.30
2022-12-18T15:34:13.263Z,-0.30
2022-12-18T15:36:37.446Z,-0.30
2022-12-18T15:39:05.255Z,-0.30
2022-12-18T15:41:30.211Z,-0.30
2022-12-18T15:43:54.392Z,-0.30
2022-12-18T15:46:21.068Z,-0.40
2022-12-18T15:48:47.479Z,-0.40
2022-12-18T15:51:19.262Z,-0.40
2022-12-18T15:53:43.206Z,-0.40
2022-12-18T15:56:29.708Z,-0.40
2022-12-18T15:58:53.171Z,-0.40
2022-12-18T16:01:27.928Z,-0.40
2022-12-18T16:03:54.450Z,-0.40
2022-12-18T16:06:17.739Z,-0.40
2022-12-18T16:08:41.119Z,-0.50
2022-12-18T16:11:05.052Z,-0.40
2022-12-18T16:13:28.345Z,-0.40
2022-12-18T16:15:51.920Z,-0.40
2022-12-18T16:18:15.238Z,-0.40
2022-12-18T16:20:40.937Z,-0.50
2022-12-18T16:23:04.237Z,-0.50
2022-12-18T16:25:29.830Z,-0.50
2022-12-18T16:27:55.118Z,-0.50
2022-12-18T16:30:21.631Z,-0.60
2022-12-18T16:32:45.298Z,-0.50
2022-12-18T16:35:11.575Z,-0.60
2022-12-18T16:37:36.362Z,-0.70
2022-12-18T16:39:59.671Z,-0.60
2022-12-18T16:42:22.957Z,-0.60
2022-12-18T16:44:48.327Z,-0.70
2022-12-18T16:47:15.261Z,-0.70
2022-12-18T16:49:38.661Z,-0.70
2022-12-18T16:52:05.511Z,-0.70
2022-12-18T16:54:30.981Z,-0.70
2022-12-18T16:56:54.262Z,-0.70
2022-12-18T16:59:17.651Z,-0.60
2022-12-18T17:01:41.979Z,-0.70
2022-12-18T17:04:07.647Z,-0.70
2022-12-18T17:06:33.916Z,-0.70
2022-12-18T17:08:58.542Z,-0.70
2022-12-18T17:11:25.089Z,-0.70
2022-12-18T17:13:48.894Z,-0.70
2022-12-18T17:16:12.674Z,-0.70
2022-12-18T17:18:36.510Z,-0.70
2022-12-18T17:21:01.799Z,-0.80
2022-12-18T17:23:25.095Z,-0.80
2022-12-18T17:25:48.455Z,-0.70
2022-12-18T17:28:13.375Z,-0.70
2022-12-18T17:30:36.621Z,-0.70
2022-12-18T17:32:59.840Z,-0.70
2022-12-18T17:35:23.575Z,-0.70
2022-12-18T17:37:46.827Z,-0.80
2022-12-18T17:40:11.585Z,-0.80
2022-12-18T17:42:34.810Z,-0.80
2022-12-18T17:44:59.950Z,-0.80
2022-12-18T17:47:23.257Z,-0.80
2022-12-18T17:49:47.262Z,-0.80
2022-12-18T17:52:10.895Z,-0.80
2022-12-18T17:54:35.425Z,-0.90
2022-12-18T17:56:58.667Z,-0.90
2022-12-18T17:59:22.613Z,-0.90
2022-12-18T18:01:47.564Z,-0.90
2022-12-18T18:04:11.180Z,-0.90
2022-12-18T18:06:34.582Z,-0.90
2022-12-18T18:09:01.956Z,-0.90
2022-12-18T18:11:43.231Z,-0.90
2022-12-18T18:14:12.604Z,-0.90
2022-12-18T18:16:39.638Z,-0.90
2022-12-18T18:19:08.421Z,-0.90
2022-12-18T18:21:32.224Z,-0.90
2022-12-18T18:23:56.288Z,-1.00
2022-12-18T18:26:19.567Z,-0.90
2022-12-18T18:28:42.823Z,-1.00
2022-12-18T18:31:06.808Z,-1.00
2022-12-18T18:33:30.158Z,-1.00
2022-12-18T18:35:55.013Z,-1.00
2022-12-18T18:38:18.423Z,-1.00
2022-12-18T18:40:42.891Z,-1.00
2022-12-18T18:43:06.555Z,-1.00
2022-12-18T18:45:30.081Z,-1.00
2022-12-18T18:47:53.686Z,-1.00
2022-12-18T18:50:17.202Z,-1.10
2022-12-18T18:52:41.852Z,-1.10
2022-12-18T18:55:13.683Z,-1.10
2022-12-18T18:57:48.520Z,-1.00
2022-12-18T19:00:13.989Z,-1.10
2022-12-18T19:02:37.614Z,-1.00
2022-12-18T19:05:00.901Z,-1.00
2022-12-18T19:07:30.403Z,-1.00
2022-12-18T19:09:55.856Z,-1.00
2022-12-18T19:12:39.487Z,-1.00
2022-12-18T19:15:04.523Z,-1.00
2022-12-18T19:17:30.744Z,-1.00
2022-12-18T19:19:54.738Z,-0.90
2022-12-18T19:22:18.202Z,-0.90
2022-12-18T19:24:42.101Z,-0.90
2022-12-18T19:27:06.760Z,-0.90
2022-12-18T19:29:30.138Z,-0.90
2022-12-18T19:31:53.415Z,-0.90
2022-12-18T19:34:16.869Z,-0.90
2022-12-18T19:36:41.795Z,-0.90
2022-12-18T19:39:11.868Z,-0.90
2022-12-18T19:41:35.225Z,-0.90
2022-12-18T19:44:00.192Z,-0.90
2022-12-18T19:46:26.065Z,-0.90
2022-12-18T19:48:50.372Z,-0.90
2022-12-18T19:51:17.148Z,-0.90
2022-12-18T19:53:40.404Z,-0.90
2022-12-18T19:56:07.257Z,-0.90
2022-12-18T19:58:30.863Z,-0.90
2022-12-18T20:00:55.456Z,-0.80
2022-12-18T20:03:28.684Z,-0.90
2022-12-18T20:05:55.514Z,-0.80
2022-12-18T20:08:18.750Z,-0.70
2022-12-18T20:10:44.777Z,-0.80
2022-12-18T20:13:08.236Z,-0.80
2022-12-18T20:15:31.589Z,-0.70
2022-12-18T20:17:56.148Z,-0.80
2022-12-18T20:20:19.784Z,-0.70
2022-12-18T20:22:43.246Z,-0.70
2022-12-18T20:25:07.899Z,-0.70
2022-12-18T20:27:31.244Z,-0.70
2022-12-18T20:29:54.443Z,-0.70
2022-12-18T20:32:19.969Z,-0.70
2022-12-18T20:34:44.736Z,-0.70
2022-12-18T20:37:08.931Z,-0.70
2022-12-18T20:39:34.277Z,-0.70
2022-12-18T20:41:58.075Z,-0.70
2022-12-18T20:44:23.882Z,-0.70
2022-12-18T20:46:47.549Z,-0.70
2022-12-18T20:49:11.273Z,-0.60
2022-12-18T20:51:36.064Z,-0.60
2022-12-18T20:53:59.631Z,-0.60
2022-12-18T20:56:24.558Z,-0.60
2022-12-18T20:58:48.454Z,-0.60
2022-12-18T21:01:15.212Z,-0.60
2022-12-18T21:03:39.113Z,-0.60
2022-12-18T21:06:02.670Z,-0.60
2022-12-18T21:08:27.320Z,-0.60
2022-12-18T21:10:50.615Z,-0.60
2022-12-18T21:13:14.030Z,-0.60
2022-12-18T21:15:37.608Z,-0.60
2022-12-18T21:18:00.891Z,-0.60
2022-12-18T21:20:24.260Z,-0.50
2022-12-18T21:22:49.196Z,-0.50
2022-12-18T21:25:13.781Z,-0.50
2022-12-18T21:27:37.050Z,-0.40
2022-12-18T21:30:00.337Z,-0.40
2022-12-18T21:32:24.024Z,-0.40
2022-12-18T21:34:49.398Z,-0.40
2022-12-18T21:37:12.655Z,-0.40
2022-12-18T21:39:36.223Z,-0.40
2022-12-18T21:42:18.778Z,-0.40
2022-12-18T21:44:42.620Z,-0.40
2022-12-18T21:47:21.446Z,-0.40
2022-12-18T21:49:46.446Z,-0.40
2022-12-18T21:52:09.743Z,-0.40
2022-12-18T21:54:33.268Z,-0.40
2022-12-18T21:56:59.274Z,-0.40
2022-12-18T21:59:26.375Z,-0.40
2022-12-18T22:01:51.141Z,-0.40
2022-12-18T22:04:15.151Z,-0.40
2022-12-18T22:06:38.863Z,-0.40
2022-12-18T22:09:02.387Z,-0.40
2022-12-18T22:11:27.977Z,-0.40
2022-12-18T22:13:51.444Z,-0.40
2022-12-18T22:16:16.084Z,-0.40
2022-12-18T22:18:39.352Z,-0.40
2022-12-18T22:21:03.163Z,-0.40
2022-12-18T22:23:26.418Z,-0.40
2022-12-18T22:25:49.695Z,-0.40
2022-12-18T22:28:30.152Z,-0.40
2022-12-18T22:30:59.457Z,-0.30
2022-12-18T22:33:24.357Z,-0.40
2022-12-18T22:35:47.663Z,-0.30
2022-12-18T22:38:11.808Z,-0.30
2022-12-18T22:40:35.037Z,-0.30
2022-12-18T22:42:58.464Z,-0.30
2022-12-18T22:45:25.247Z,-0.20
2022-12-18T22:47:48.990Z,-0.30
2022-12-18T22:50:15.240Z,-0.20
2022-12-18T22:52:38.491Z,-0.20
2022-12-18T22:55:01.712Z,-0.20
2022-12-18T22:57:27.433Z,-0.20
2022-12-18T22:59:51.049Z,-0.20
2022-12-18T23:02:14.326Z,-0.20
2022-12-18T23:04:37.847Z,-0.20
2022-12-18T23:07:02.471Z,-0.20
2022-12-18T23:09:25.720Z,-0.20
2022-12-18T23:11:49.433Z,-0.10
2022-12-18T23:14:12.849Z,-0.10
2022-12-18T23:16:36.251Z,-0.10
2022-12-18T23:18:59.546Z,-0.10
2022-12-18T23:21:24.523Z,-0.10
2022-12-18T23:23:50.918Z,-0.10
2022-12-18T23:26:16.933Z,-0.10
2022-12-18T23:28:41.153Z,0.00
2022-12-18T23:31:09.744Z,0.00
2022-12-18T23:33:33.143Z,0.00
2022-12-18T23:36:01.219Z,0.00
2022-12-18T23:38:24.465Z,0.00
2022-12-18T23:40:49.310Z,0.00
2022-12-18T23:43:16.650Z,0.00
2022-12-18T23:45:40.001Z,0.00
2022-12-18T23:48:03.262Z,0.00
2022-12-18T23:50:29.602Z,0.00
2022-12-18T23:52:53.515Z,0.00
2022-12-18T23:55:16.898Z,0.00
2022-12-18T23:57:41.601Z,0.00
